sensor_id;sensor_type;location;lat;lon;timestamp;P1;durP1;ratioP1;P2;durP2;ratioP2
3101;SDS011;1561;42.666;23.392;2022-11-20T00:01:03;11.40;;;8.70;;
3101;SDS011;1561;42.666;23.392;2022-11-20T00:03:34;10.87;;;8.90;;
3101;SDS011;1561;42.666;23.392;2022-11-20T00:06:17;9.03;;;8.13;;
3101;SDS011;1561;42.666;23.392;2022-11-20T00:08:54;11.67;;;9.80;;
3101;SDS011;1561;42.666;23.392;2022-11-20T00:11:31;15.13;;;10.37;;
3101;SDS011;1561;42.666;23.392;2022-11-20T00:14:03;14.33;;;9.73;;
3101;SDS011;1561;42.666;23.392;2022-11-20T00:16:41;9.53;;;8.60;;
3101;SDS011;1561;42.666;23.392;2022-11-20T00:19:13;11.40;;;9.10;;
3101;SDS011;1561;42.666;23.392;2022-11-20T00:21:43;12.13;;;9.53;;
3101;SDS011;1561;42.666;23.392;2022-11-20T00:24:16;10.03;;;8.60;;
3101;SDS011;1561;42.666;23.392;2022-11-20T00:26:49;12.33;;;9.53;;
3101;SDS011;1561;42.666;23.392;2022-11-20T00:29:21;9.93;;;7.70;;
3101;SDS011;1561;42.666;23.392;2022-11-20T00:31:49;10.40;;;6.83;;
3101;SDS011;1561;42.666;23.392;2022-11-20T00:34:24;8.57;;;6.63;;
3101;SDS011;1561;42.666;23.392;2022-11-20T00:36:58;9.60;;;8.70;;
3101;SDS011;1561;42.666;23.392;2022-11-20T00:39:32;9.47;;;7.93;;
3101;SDS011;1561;42.666;23.392;2022-11-20T00:42:07;8.90;;;7.90;;
3101;SDS011;1561;42.666;23.392;2022-11-20T00:44:44;8.30;;;6.80;;
3101;SDS011;1561;42.666;23.392;2022-11-20T00:47:15;12.43;;;7.97;;
3101;SDS011;1561;42.666;23.392;2022-11-20T00:49:56;9.57;;;7.60;;
3101;SDS011;1561;42.666;23.392;2022-11-20T00:52:24;8.20;;;6.87;;
3101;SDS011;1561;42.666;23.392;2022-11-20T00:54:53;9.50;;;6.77;;
3101;SDS011;1561;42.666;23.392;2022-11-20T00:57:23;8.70;;;7.10;;
3101;SDS011;1561;42.666;23.392;2022-11-20T00:59:56;6.80;;;6.10;;
3101;SDS011;1561;42.666;23.392;2022-11-20T01:02:32;5.57;;;5.00;;
3101;SDS011;1561;42.666;23.392;2022-11-20T01:07:52;6.27;;;5.33;;
3101;SDS011;1561;42.666;23.392;2022-11-20T01:13:19;5.37;;;4.87;;
3101;SDS011;1561;42.666;23.392;2022-11-20T01:16:07;4.73;;;4.07;;
3101;SDS011;1561;42.666;23.392;2022-11-20T01:18:42;6.47;;;5.05;;
3101;SDS011;1561;42.666;23.392;2022-11-20T01:21:28;7.35;;;5.18;;
3101;SDS011;1561;42.666;23.392;2022-11-20T01:24:00;5.22;;;4.70;;
3101;SDS011;1561;42.666;23.392;2022-11-20T01:26:33;6.45;;;5.40;;
3101;SDS011;1561;42.666;23.392;2022-11-20T01:29:13;6.10;;;3.67;;
3101;SDS011;1561;42.666;23.392;2022-11-20T01:31:57;6.10;;;4.17;;
3101;SDS011;1561;42.666;23.392;2022-11-20T01:34:27;5.60;;;4.10;;
3101;SDS011;1561;42.666;23.392;2022-11-20T01:37:09;5.43;;;4.27;;
3101;SDS011;1561;42.666;23.392;2022-11-20T01:39:37;6.23;;;5.17;;
3101;SDS011;1561;42.666;23.392;2022-11-20T01:42:06;6.50;;;5.90;;
3101;SDS011;1561;42.666;23.392;2022-11-20T01:44:55;10.87;;;6.80;;
3101;SDS011;1561;42.666;23.392;2022-11-20T01:47:33;6.80;;;6.10;;
3101;SDS011;1561;42.666;23.392;2022-11-20T01:50:09;9.37;;;8.00;;
3101;SDS011;1561;42.666;23.392;2022-11-20T01:53:03;8.93;;;6.60;;
3101;SDS011;1561;42.666;23.392;2022-11-20T01:55:41;8.07;;;6.70;;
3101;SDS011;1561;42.666;23.392;2022-11-20T01:58:16;8.13;;;5.67;;
3101;SDS011;1561;42.666;23.392;2022-11-20T02:00:50;9.73;;;6.67;;
3101;SDS011;1561;42.666;23.392;2022-11-20T02:03:18;6.03;;;5.13;;
3101;SDS011;1561;42.666;23.392;2022-11-20T02:05:59;4.00;;;3.13;;
3101;SDS011;1561;42.666;23.392;2022-11-20T02:11:26;9.77;;;5.33;;
3101;SDS011;1561;42.666;23.392;2022-11-20T02:13:59;5.85;;;4.40;;
3101;SDS011;1561;42.666;23.392;2022-11-20T02:16:29;5.17;;;4.70;;
3101;SDS011;1561;42.666;23.392;2022-11-20T02:19:20;8.57;;;5.87;;
3101;SDS011;1561;42.666;23.392;2022-11-20T02:22:04;7.97;;;5.55;;
3101;SDS011;1561;42.666;23.392;2022-11-20T02:24:37;7.53;;;5.22;;
3101;SDS011;1561;42.666;23.392;2022-11-20T02:27:10;3.40;;;3.10;;
3101;SDS011;1561;42.666;23.392;2022-11-20T02:29:42;3.75;;;3.45;;
3101;SDS011;1561;42.666;23.392;2022-11-20T02:32:19;5.18;;;4.47;;
3101;SDS011;1561;42.666;23.392;2022-11-20T02:34:57;6.63;;;5.38;;
3101;SDS011;1561;42.666;23.392;2022-11-20T02:37:52;5.47;;;4.40;;
3101;SDS011;1561;42.666;23.392;2022-11-20T02:40:27;6.95;;;4.60;;
3101;SDS011;1561;42.666;23.392;2022-11-20T02:43:01;4.77;;;4.17;;
3101;SDS011;1561;42.666;23.392;2022-11-20T02:45:42;5.22;;;4.35;;
3101;SDS011;1561;42.666;23.392;2022-11-20T02:48:16;5.25;;;4.30;;
3101;SDS011;1561;42.666;23.392;2022-11-20T02:50:43;4.72;;;3.70;;
3101;SDS011;1561;42.666;23.392;2022-11-20T02:53:16;2.58;;;2.38;;
3101;SDS011;1561;42.666;23.392;2022-11-20T02:55:47;3.13;;;2.22;;
3101;SDS011;1561;42.666;23.392;2022-11-20T02:58:21;4.22;;;1.83;;
3101;SDS011;1561;42.666;23.392;2022-11-20T03:00:54;4.35;;;2.20;;
3101;SDS011;1561;42.666;23.392;2022-11-20T03:03:26;8.63;;;2.20;;
3101;SDS011;1561;42.666;23.392;2022-11-20T03:05:59;2.53;;;2.25;;
3101;SDS011;1561;42.666;23.392;2022-11-20T03:08:31;1.50;;;1.40;;
3101;SDS011;1561;42.666;23.392;2022-11-20T03:11:06;3.50;;;1.50;;
3101;SDS011;1561;42.666;23.392;2022-11-20T03:13:34;1.08;;;0.95;;
3101;SDS011;1561;42.666;23.392;2022-11-20T03:16:12;2.08;;;1.60;;
3101;SDS011;1561;42.666;23.392;2022-11-20T03:19:11;1.65;;;1.55;;
3101;SDS011;1561;42.666;23.392;2022-11-20T03:21:50;2.63;;;1.83;;
3101;SDS011;1561;42.666;23.392;2022-11-20T03:24:19;1.92;;;1.67;;
3101;SDS011;1561;42.666;23.392;2022-11-20T03:27:04;1.20;;;1.20;;
3101;SDS011;1561;42.666;23.392;2022-11-20T03:29:32;3.22;;;1.60;;
3101;SDS011;1561;42.666;23.392;2022-11-20T03:32:02;3.25;;;1.30;;
3101;SDS011;1561;42.666;23.392;2022-11-20T03:34:34;1.63;;;1.48;;
3101;SDS011;1561;42.666;23.392;2022-11-20T03:37:08;2.13;;;1.60;;
3101;SDS011;1561;42.666;23.392;2022-11-20T03:39:38;1.73;;;1.60;;
3101;SDS011;1561;42.666;23.392;2022-11-20T03:42:19;1.77;;;1.45;;
3101;SDS011;1561;42.666;23.392;2022-11-20T03:45:08;2.65;;;1.60;;
3101;SDS011;1561;42.666;23.392;2022-11-20T03:47:51;1.48;;;1.40;;
3101;SDS011;1561;42.666;23.392;2022-11-20T03:50:23;6.70;;;1.77;;
3101;SDS011;1561;42.666;23.392;2022-11-20T03:52:53;3.28;;;1.50;;
3101;SDS011;1561;42.666;23.392;2022-11-20T03:55:23;2.25;;;2.05;;
3101;SDS011;1561;42.666;23.392;2022-11-20T03:58:00;3.53;;;1.52;;
3101;SDS011;1561;42.666;23.392;2022-11-20T04:00:32;4.25;;;3.28;;
3101;SDS011;1561;42.666;23.392;2022-11-20T04:03:00;1.90;;;1.63;;
3101;SDS011;1561;42.666;23.392;2022-11-20T04:05:37;1.45;;;1.35;;
3101;SDS011;1561;42.666;23.392;2022-11-20T04:08:10;1.23;;;1.13;;
3101;SDS011;1561;42.666;23.392;2022-11-20T04:11:09;1.92;;;1.73;;
3101;SDS011;1561;42.666;23.392;2022-11-20T04:13:45;2.25;;;1.50;;
3101;SDS011;1561;42.666;23.392;2022-11-20T04:16:25;1.60;;;1.45;;
3101;SDS011;1561;42.666;23.392;2022-11-20T04:19:11;1.85;;;1.75;;
3101;SDS011;1561;42.666;23.392;2022-11-20T04:21:41;2.05;;;1.50;;
3101;SDS011;1561;42.666;23.392;2022-11-20T04:24:12;2.92;;;1.63;;
3101;SDS011;1561;42.666;23.392;2022-11-20T04:26:45;3.45;;;1.48;;
3101;SDS011;1561;42.666;23.392;2022-11-20T04:31:59;1.88;;;1.70;;
3101;SDS011;1561;42.666;23.392;2022-11-20T04:34:33;2.67;;;1.45;;
3101;SDS011;1561;42.666;23.392;2022-11-20T04:37:04;8.15;;;2.03;;
3101;SDS011;1561;42.666;23.392;2022-11-20T04:39:48;3.88;;;1.73;;
3101;SDS011;1561;42.666;23.392;2022-11-20T04:42:21;1.80;;;1.70;;
3101;SDS011;1561;42.666;23.392;2022-11-20T04:44:56;5.35;;;1.63;;
3101;SDS011;1561;42.666;23.392;2022-11-20T04:47:27;1.90;;;1.48;;
3101;SDS011;1561;42.666;23.392;2022-11-20T04:49:57;2.20;;;1.90;;
3101;SDS011;1561;42.666;23.392;2022-11-20T04:52:38;2.60;;;1.50;;
3101;SDS011;1561;42.666;23.392;2022-11-20T04:55:07;2.70;;;1.40;;
3101;SDS011;1561;42.666;23.392;2022-11-20T04:57:35;3.00;;;1.60;;
3101;SDS011;1561;42.666;23.392;2022-11-20T05:00:21;1.65;;;1.40;;
3101;SDS011;1561;42.666;23.392;2022-11-20T05:02:49;1.75;;;1.58;;
3101;SDS011;1561;42.666;23.392;2022-11-20T05:05:23;2.08;;;1.35;;
3101;SDS011;1561;42.666;23.392;2022-11-20T05:07:55;2.08;;;1.70;;
3101;SDS011;1561;42.666;23.392;2022-11-20T05:10:30;2.08;;;1.60;;
3101;SDS011;1561;42.666;23.392;2022-11-20T05:13:03;1.73;;;1.45;;
3101;SDS011;1561;42.666;23.392;2022-11-20T05:15:40;2.42;;;1.55;;
3101;SDS011;1561;42.666;23.392;2022-11-20T05:18:23;1.45;;;1.35;;
3101;SDS011;1561;42.666;23.392;2022-11-20T05:20:54;2.40;;;1.50;;
3101;SDS011;1561;42.666;23.392;2022-11-20T05:23:27;1.40;;;1.30;;
3101;SDS011;1561;42.666;23.392;2022-11-20T05:25:59;3.08;;;1.77;;
3101;SDS011;1561;42.666;23.392;2022-11-20T05:28:31;3.13;;;1.10;;
3101;SDS011;1561;42.666;23.392;2022-11-20T05:31:09;3.65;;;1.20;;
3101;SDS011;1561;42.666;23.392;2022-11-20T05:33:40;1.90;;;1.50;;
3101;SDS011;1561;42.666;23.392;2022-11-20T05:36:12;2.15;;;1.27;;
3101;SDS011;1561;42.666;23.392;2022-11-20T05:38:44;1.48;;;1.38;;
3101;SDS011;1561;42.666;23.392;2022-11-20T05:41:25;5.72;;;1.50;;
3101;SDS011;1561;42.666;23.392;2022-11-20T05:44:32;1.40;;;1.30;;
3101;SDS011;1561;42.666;23.392;2022-11-20T05:47:17;3.72;;;1.65;;
3101;SDS011;1561;42.666;23.392;2022-11-20T05:49:54;1.45;;;1.27;;
3101;SDS011;1561;42.666;23.392;2022-11-20T05:52:27;3.67;;;1.70;;
3101;SDS011;1561;42.666;23.392;2022-11-20T05:54:59;1.98;;;1.30;;
3101;SDS011;1561;42.666;23.392;2022-11-20T05:57:26;2.65;;;1.30;;
3101;SDS011;1561;42.666;23.392;2022-11-20T05:59:55;2.78;;;1.60;;
3101;SDS011;1561;42.666;23.392;2022-11-20T06:02:35;2.75;;;1.50;;
3101;SDS011;1561;42.666;23.392;2022-11-20T06:05:05;2.42;;;1.63;;
3101;SDS011;1561;42.666;23.392;2022-11-20T06:07:34;2.47;;;1.73;;
3101;SDS011;1561;42.666;23.392;2022-11-20T06:10:04;3.60;;;1.67;;
3101;SDS011;1561;42.666;23.392;2022-11-20T06:12:35;11.88;;;1.65;;
3101;SDS011;1561;42.666;23.392;2022-11-20T06:15:10;1.30;;;1.20;;
3101;SDS011;1561;42.666;23.392;2022-11-20T06:17:43;5.68;;;2.17;;
3101;SDS011;1561;42.666;23.392;2022-11-20T06:20:13;3.78;;;1.38;;
3101;SDS011;1561;42.666;23.392;2022-11-20T06:22:45;3.10;;;2.17;;
3101;SDS011;1561;42.666;23.392;2022-11-20T06:25:19;2.72;;;1.60;;
3101;SDS011;1561;42.666;23.392;2022-11-20T06:27:50;3.38;;;2.05;;
3101;SDS011;1561;42.666;23.392;2022-11-20T06:30:24;2.55;;;1.58;;
3101;SDS011;1561;42.666;23.392;2022-11-20T06:32:55;2.70;;;1.52;;
3101;SDS011;1561;42.666;23.392;2022-11-20T06:35:33;1.98;;;1.50;;
3101;SDS011;1561;42.666;23.392;2022-11-20T06:38:00;2.80;;;1.30;;
3101;SDS011;1561;42.666;23.392;2022-11-20T06:40:33;2.90;;;1.45;;
3101;SDS011;1561;42.666;23.392;2022-11-20T06:43:12;2.10;;;1.70;;
3101;SDS011;1561;42.666;23.392;2022-11-20T06:45:44;2.42;;;1.70;;
3101;SDS011;1561;42.666;23.392;2022-11-20T06:48:14;1.77;;;1.52;;
3101;SDS011;1561;42.666;23.392;2022-11-20T06:50:50;3.22;;;1.73;;
3101;SDS011;1561;42.666;23.392;2022-11-20T06:53:20;5.57;;;1.50;;
3101;SDS011;1561;42.666;23.392;2022-11-20T06:55:55;7.43;;;1.80;;
3101;SDS011;1561;42.666;23.392;2022-11-20T06:58:22;4.15;;;1.73;;
3101;SDS011;1561;42.666;23.392;2022-11-20T07:00:53;1.60;;;1.20;;
3101;SDS011;1561;42.666;23.392;2022-11-20T07:03:35;3.00;;;1.80;;
3101;SDS011;1561;42.666;23.392;2022-11-20T07:06:08;4.10;;;1.25;;
3101;SDS011;1561;42.666;23.392;2022-11-20T07:08:36;3.03;;;1.67;;
3101;SDS011;1561;42.666;23.392;2022-11-20T07:11:13;4.85;;;1.65;;
3101;SDS011;1561;42.666;23.392;2022-11-20T07:13:49;3.30;;;1.63;;
3101;SDS011;1561;42.666;23.392;2022-11-20T07:16:22;1.92;;;1.70;;
3101;SDS011;1561;42.666;23.392;2022-11-20T07:18:55;1.98;;;1.73;;
3101;SDS011;1561;42.666;23.392;2022-11-20T07:21:37;1.67;;;1.48;;
3101;SDS011;1561;42.666;23.392;2022-11-20T07:24:04;2.97;;;1.30;;
3101;SDS011;1561;42.666;23.392;2022-11-20T07:26:39;2.45;;;1.30;;
3101;SDS011;1561;42.666;23.392;2022-11-20T07:29:21;2.28;;;1.60;;
3101;SDS011;1561;42.666;23.392;2022-11-20T07:31:53;2.60;;;1.88;;
3101;SDS011;1561;42.666;23.392;2022-11-20T07:34:23;1.83;;;1.52;;
3101;SDS011;1561;42.666;23.392;2022-11-20T07:36:53;2.10;;;1.58;;
3101;SDS011;1561;42.666;23.392;2022-11-20T07:39:31;1.50;;;1.40;;
3101;SDS011;1561;42.666;23.392;2022-11-20T07:42:02;3.83;;;1.58;;
3101;SDS011;1561;42.666;23.392;2022-11-20T07:44:38;2.50;;;1.60;;
3101;SDS011;1561;42.666;23.392;2022-11-20T07:47:11;4.47;;;1.65;;
3101;SDS011;1561;42.666;23.392;2022-11-20T07:49:45;2.30;;;1.70;;
3101;SDS011;1561;42.666;23.392;2022-11-20T07:52:16;1.88;;;1.50;;
3101;SDS011;1561;42.666;23.392;2022-11-20T07:54:45;2.78;;;1.30;;
3101;SDS011;1561;42.666;23.392;2022-11-20T07:57:28;2.10;;;1.50;;
3101;SDS011;1561;42.666;23.392;2022-11-20T07:59:55;3.60;;;1.60;;
3101;SDS011;1561;42.666;23.392;2022-11-20T08:02:33;2.58;;;1.50;;
3101;SDS011;1561;42.666;23.392;2022-11-20T08:05:06;2.55;;;1.55;;
3101;SDS011;1561;42.666;23.392;2022-11-20T08:07:38;5.82;;;2.03;;
3101;SDS011;1561;42.666;23.392;2022-11-20T08:10:11;1.90;;;1.40;;
3101;SDS011;1561;42.666;23.392;2022-11-20T08:12:45;4.13;;;1.55;;
3101;SDS011;1561;42.666;23.392;2022-11-20T08:15:31;5.65;;;2.13;;
3101;SDS011;1561;42.666;23.392;2022-11-20T08:18:03;6.25;;;1.98;;
3101;SDS011;1561;42.666;23.392;2022-11-20T08:21:03;4.50;;;2.30;;
3101;SDS011;1561;42.666;23.392;2022-11-20T08:23:37;3.53;;;1.83;;
3101;SDS011;1561;42.666;23.392;2022-11-20T08:26:18;8.38;;;2.88;;
3101;SDS011;1561;42.666;23.392;2022-11-20T08:29:02;3.97;;;1.80;;
3101;SDS011;1561;42.666;23.392;2022-11-20T08:31:39;2.72;;;1.65;;
3101;SDS011;1561;42.666;23.392;2022-11-20T08:34:19;3.35;;;1.48;;
3101;SDS011;1561;42.666;23.392;2022-11-20T08:36:55;2.65;;;1.60;;
3101;SDS011;1561;42.666;23.392;2022-11-20T08:39:34;3.30;;;1.42;;
3101;SDS011;1561;42.666;23.392;2022-11-20T08:42:11;3.47;;;1.63;;
3101;SDS011;1561;42.666;23.392;2022-11-20T08:45:05;6.97;;;1.90;;
3101;SDS011;1561;42.666;23.392;2022-11-20T08:50:26;10.48;;;4.18;;
3101;SDS011;1561;42.666;23.392;2022-11-20T08:53:07;3.25;;;2.33;;
3101;SDS011;1561;42.666;23.392;2022-11-20T08:55:36;6.00;;;2.70;;
3101;SDS011;1561;42.666;23.392;2022-11-20T08:58:08;4.30;;;2.60;;
3101;SDS011;1561;42.666;23.392;2022-11-20T09:00:38;8.10;;;3.65;;
3101;SDS011;1561;42.666;23.392;2022-11-20T09:03:05;7.22;;;3.50;;
3101;SDS011;1561;42.666;23.392;2022-11-20T09:05:42;2.78;;;2.15;;
3101;SDS011;1561;42.666;23.392;2022-11-20T09:08:11;7.80;;;2.38;;
3101;SDS011;1561;42.666;23.392;2022-11-20T09:10:43;6.47;;;2.72;;
3101;SDS011;1561;42.666;23.392;2022-11-20T09:13:13;4.00;;;1.92;;
3101;SDS011;1561;42.666;23.392;2022-11-20T09:15:44;7.50;;;2.60;;
3101;SDS011;1561;42.666;23.392;2022-11-20T09:18:25;3.20;;;2.25;;
3101;SDS011;1561;42.666;23.392;2022-11-20T09:20:59;4.55;;;3.40;;
3101;SDS011;1561;42.666;23.392;2022-11-20T09:23:30;4.40;;;3.00;;
3101;SDS011;1561;42.666;23.392;2022-11-20T09:26:01;5.03;;;3.50;;
3101;SDS011;1561;42.666;23.392;2022-11-20T09:28:33;3.63;;;2.67;;
3101;SDS011;1561;42.666;23.392;2022-11-20T09:31:07;3.63;;;3.17;;
3101;SDS011;1561;42.666;23.392;2022-11-20T09:33:50;2.47;;;2.20;;
3101;SDS011;1561;42.666;23.392;2022-11-20T09:36:32;5.07;;;1.67;;
3101;SDS011;1561;42.666;23.392;2022-11-20T09:39:10;1.85;;;1.70;;
3101;SDS011;1561;42.666;23.392;2022-11-20T09:41:43;1.30;;;1.20;;
3101;SDS011;1561;42.666;23.392;2022-11-20T09:44:49;2.85;;;2.47;;
3101;SDS011;1561;42.666;23.392;2022-11-20T09:47:35;2.25;;;1.83;;
3101;SDS011;1561;42.666;23.392;2022-11-20T09:53:04;2.13;;;1.60;;
3101;SDS011;1561;42.666;23.392;2022-11-20T09:55:48;3.83;;;1.87;;
3101;SDS011;1561;42.666;23.392;2022-11-20T09:58:20;3.50;;;1.90;;
3101;SDS011;1561;42.666;23.392;2022-11-20T10:01:11;3.47;;;2.80;;
3101;SDS011;1561;42.666;23.392;2022-11-20T10:03:51;2.10;;;1.90;;
3101;SDS011;1561;42.666;23.392;2022-11-20T10:06:28;1.87;;;1.77;;
3101;SDS011;1561;42.666;23.392;2022-11-20T10:09:06;3.80;;;1.97;;
3101;SDS011;1561;42.666;23.392;2022-11-20T10:12:00;2.07;;;1.63;;
3101;SDS011;1561;42.666;23.392;2022-11-20T10:14:50;3.07;;;2.10;;
3101;SDS011;1561;42.666;23.392;2022-11-20T10:17:44;4.73;;;2.70;;
3101;SDS011;1561;42.666;23.392;2022-11-20T10:20:29;10.20;;;3.20;;
3101;SDS011;1561;42.666;23.392;2022-11-20T10:23:23;7.37;;;2.80;;
3101;SDS011;1561;42.666;23.392;2022-11-20T10:26:13;6.23;;;4.03;;
3101;SDS011;1561;42.666;23.392;2022-11-20T10:32:03;6.45;;;4.50;;
3101;SDS011;1561;42.666;23.392;2022-11-20T10:34:39;7.22;;;3.80;;
3101;SDS011;1561;42.666;23.392;2022-11-20T10:37:16;7.07;;;4.00;;
3101;SDS011;1561;42.666;23.392;2022-11-20T10:39:49;8.50;;;3.83;;
3101;SDS011;1561;42.666;23.392;2022-11-20T10:42:31;5.20;;;3.67;;
3101;SDS011;1561;42.666;23.392;2022-11-20T10:45:09;7.10;;;5.25;;
3101;SDS011;1561;42.666;23.392;2022-11-20T10:51:01;9.35;;;6.15;;
3101;SDS011;1561;42.666;23.392;2022-11-20T10:56:41;8.10;;;5.47;;
3101;SDS011;1561;42.666;23.392;2022-11-20T10:59:22;11.50;;;4.30;;
3101;SDS011;1561;42.666;23.392;2022-11-20T11:02:18;7.47;;;5.47;;
3101;SDS011;1561;42.666;23.392;2022-11-20T11:05:04;7.10;;;6.10;;
3101;SDS011;1561;42.666;23.392;2022-11-20T11:08:02;6.77;;;5.53;;
3101;SDS011;1561;42.666;23.392;2022-11-20T11:10:39;8.43;;;6.43;;
3101;SDS011;1561;42.666;23.392;2022-11-20T11:13:21;11.00;;;6.00;;
3101;SDS011;1561;42.666;23.392;2022-11-20T11:16:04;8.70;;;7.00;;
3101;SDS011;1561;42.666;23.392;2022-11-20T11:18:41;12.50;;;6.97;;
3101;SDS011;1561;42.666;23.392;2022-11-20T11:21:14;11.40;;;6.30;;
3101;SDS011;1561;42.666;23.392;2022-11-20T11:23:57;8.67;;;4.00;;
3101;SDS011;1561;42.666;23.392;2022-11-20T11:26:50;7.70;;;3.53;;
3101;SDS011;1561;42.666;23.392;2022-11-20T11:29:23;3.70;;;3.40;;
3101;SDS011;1561;42.666;23.392;2022-11-20T11:32:02;9.10;;;4.23;;
3101;SDS011;1561;42.666;23.392;2022-11-20T11:35:02;4.60;;;3.17;;
3101;SDS011;1561;42.666;23.392;2022-11-20T11:38:02;5.43;;;2.00;;
3101;SDS011;1561;42.666;23.392;2022-11-20T11:40:34;2.10;;;1.23;;
3101;SDS011;1561;42.666;23.392;2022-11-20T11:43:16;1.77;;;1.30;;
3101;SDS011;1561;42.666;23.392;2022-11-20T11:46:12;1.23;;;0.80;;
3101;SDS011;1561;42.666;23.392;2022-11-20T11:48:55;1.70;;;1.00;;
3101;SDS011;1561;42.666;23.392;2022-11-20T11:51:33;1.13;;;1.03;;
3101;SDS011;1561;42.666;23.392;2022-11-20T11:54:13;0.83;;;0.70;;
3101;SDS011;1561;42.666;23.392;2022-11-20T11:56:53;2.30;;;0.93;;
3101;SDS011;1561;42.666;23.392;2022-11-20T11:59:24;2.83;;;1.27;;
3101;SDS011;1561;42.666;23.392;2022-11-20T12:01:57;4.47;;;1.70;;
3101;SDS011;1561;42.666;23.392;2022-11-20T12:04:37;2.00;;;1.77;;
3101;SDS011;1561;42.666;23.392;2022-11-20T12:07:21;1.50;;;1.40;;
3101;SDS011;1561;42.666;23.392;2022-11-20T12:12:46;5.90;;;1.63;;
3101;SDS011;1561;42.666;23.392;2022-11-20T12:15:31;3.27;;;1.40;;
3101;SDS011;1561;42.666;23.392;2022-11-20T12:18:18;1.63;;;1.23;;
3101;SDS011;1561;42.666;23.392;2022-11-20T12:20:50;3.00;;;0.97;;
3101;SDS011;1561;42.666;23.392;2022-11-20T12:23:31;1.00;;;0.80;;
3101;SDS011;1561;42.666;23.392;2022-11-20T12:26:16;1.23;;;0.57;;
3101;SDS011;1561;42.666;23.392;2022-11-20T12:28:58;0.70;;;0.70;;
3101;SDS011;1561;42.666;23.392;2022-11-20T12:31:44;0.67;;;0.67;;
3101;SDS011;1561;42.666;23.392;2022-11-20T12:34:37;1.00;;;0.90;;
3101;SDS011;1561;42.666;23.392;2022-11-20T12:37:26;0.73;;;0.70;;
3101;SDS011;1561;42.666;23.392;2022-11-20T12:40:15;0.70;;;0.53;;
3101;SDS011;1561;42.666;23.392;2022-11-20T12:43:00;1.03;;;0.70;;
3101;SDS011;1561;42.666;23.392;2022-11-20T12:46:05;0.97;;;0.57;;
3101;SDS011;1561;42.666;23.392;2022-11-20T12:52:04;0.83;;;0.63;;
3101;SDS011;1561;42.666;23.392;2022-11-20T12:55:21;1.00;;;1.00;;
3101;SDS011;1561;42.666;23.392;2022-11-20T13:00:54;0.87;;;0.80;;
3101;SDS011;1561;42.666;23.392;2022-11-20T13:03:34;0.90;;;0.90;;
3101;SDS011;1561;42.666;23.392;2022-11-20T13:06:11;3.70;;;1.37;;
3101;SDS011;1561;42.666;23.392;2022-11-20T13:08:50;2.30;;;1.60;;
3101;SDS011;1561;42.666;23.392;2022-11-20T13:11:23;2.60;;;1.30;;
3101;SDS011;1561;42.666;23.392;2022-11-20T13:16:58;3.10;;;1.10;;
3101;SDS011;1561;42.666;23.392;2022-11-20T13:19:41;2.50;;;1.40;;
3101;SDS011;1561;42.666;23.392;2022-11-20T13:22:24;3.87;;;1.63;;
3101;SDS011;1561;42.666;23.392;2022-11-20T13:25:10;2.37;;;2.17;;
3101;SDS011;1561;42.666;23.392;2022-11-20T13:27:54;5.20;;;3.70;;
3101;SDS011;1561;42.666;23.392;2022-11-20T13:30:36;4.53;;;3.17;;
3101;SDS011;1561;42.666;23.392;2022-11-20T13:33:22;3.37;;;3.07;;
3101;SDS011;1561;42.666;23.392;2022-11-20T13:35:55;5.87;;;3.17;;
3101;SDS011;1561;42.666;23.392;2022-11-20T13:38:26;8.80;;;3.13;;
3101;SDS011;1561;42.666;23.392;2022-11-20T13:41:10;4.23;;;2.93;;
3101;SDS011;1561;42.666;23.392;2022-11-20T13:43:58;4.30;;;2.60;;
3101;SDS011;1561;42.666;23.392;2022-11-20T13:46:50;4.20;;;2.70;;
3101;SDS011;1561;42.666;23.392;2022-11-20T13:49:28;4.37;;;2.60;;
3101;SDS011;1561;42.666;23.392;2022-11-20T13:52:26;6.47;;;3.23;;
3101;SDS011;1561;42.666;23.392;2022-11-20T13:55:12;4.60;;;2.70;;
3101;SDS011;1561;42.666;23.392;2022-11-20T13:57:54;5.23;;;3.10;;
3101;SDS011;1561;42.666;23.392;2022-11-20T14:00:43;7.00;;;3.50;;
3101;SDS011;1561;42.666;23.392;2022-11-20T14:03:19;7.37;;;3.60;;
3101;SDS011;1561;42.666;23.392;2022-11-20T14:05:50;4.17;;;3.17;;
3101;SDS011;1561;42.666;23.392;2022-11-20T14:08:25;6.20;;;3.80;;
3101;SDS011;1561;42.666;23.392;2022-11-20T14:11:06;6.27;;;3.47;;
3101;SDS011;1561;42.666;23.392;2022-11-20T14:13:50;10.07;;;3.50;;
3101;SDS011;1561;42.666;23.392;2022-11-20T14:16:23;5.87;;;3.40;;
3101;SDS011;1561;42.666;23.392;2022-11-20T14:22:16;9.83;;;7.83;;
3101;SDS011;1561;42.666;23.392;2022-11-20T14:25:04;9.00;;;4.13;;
3101;SDS011;1561;42.666;23.392;2022-11-20T14:27:35;11.40;;;5.30;;
3101;SDS011;1561;42.666;23.392;2022-11-20T14:30:15;9.70;;;6.17;;
3101;SDS011;1561;42.666;23.392;2022-11-20T14:32:48;8.20;;;4.80;;
3101;SDS011;1561;42.666;23.392;2022-11-20T14:35:23;12.80;;;8.20;;
3101;SDS011;1561;42.666;23.392;2022-11-20T14:37:54;19.20;;;11.83;;
3101;SDS011;1561;42.666;23.392;2022-11-20T14:40:28;10.83;;;7.93;;
3101;SDS011;1561;42.666;23.392;2022-11-20T14:43:17;10.73;;;6.63;;
3101;SDS011;1561;42.666;23.392;2022-11-20T14:45:48;9.30;;;5.63;;
3101;SDS011;1561;42.666;23.392;2022-11-20T14:48:28;8.83;;;5.00;;
3101;SDS011;1561;42.666;23.392;2022-11-20T14:54:07;8.20;;;5.40;;
3101;SDS011;1561;42.666;23.392;2022-11-20T14:56:39;5.87;;;4.50;;
3101;SDS011;1561;42.666;23.392;2022-11-20T14:59:27;9.77;;;6.63;;
3101;SDS011;1561;42.666;23.392;2022-11-20T15:02:02;11.70;;;7.63;;
3101;SDS011;1561;42.666;23.392;2022-11-20T15:04:44;15.77;;;8.70;;
3101;SDS011;1561;42.666;23.392;2022-11-20T15:07:29;16.10;;;8.60;;
3101;SDS011;1561;42.666;23.392;2022-11-20T15:09:59;14.60;;;8.30;;
3101;SDS011;1561;42.666;23.392;2022-11-20T15:12:45;10.27;;;7.40;;
3101;SDS011;1561;42.666;23.392;2022-11-20T15:15:17;9.77;;;6.87;;
3101;SDS011;1561;42.666;23.392;2022-11-20T15:17:58;11.50;;;7.30;;
3101;SDS011;1561;42.666;23.392;2022-11-20T15:20:32;10.10;;;7.30;;
3101;SDS011;1561;42.666;23.392;2022-11-20T15:23:10;17.30;;;8.10;;
3101;SDS011;1561;42.666;23.392;2022-11-20T15:25:44;12.93;;;6.37;;
3101;SDS011;1561;42.666;23.392;2022-11-20T15:28:23;6.10;;;5.50;;
3101;SDS011;1561;42.666;23.392;2022-11-20T15:31:00;7.03;;;5.20;;
3101;SDS011;1561;42.666;23.392;2022-11-20T15:33:46;5.60;;;3.97;;
3101;SDS011;1561;42.666;23.392;2022-11-20T15:36:19;4.70;;;3.67;;
3101;SDS011;1561;42.666;23.392;2022-11-20T15:38:59;3.60;;;3.30;;
3101;SDS011;1561;42.666;23.392;2022-11-20T15:41:29;4.30;;;3.53;;
3101;SDS011;1561;42.666;23.392;2022-11-20T15:44:05;4.80;;;2.90;;
3101;SDS011;1561;42.666;23.392;2022-11-20T15:46:35;3.87;;;2.90;;
3101;SDS011;1561;42.666;23.392;2022-11-20T15:49:05;4.60;;;3.00;;
3101;SDS011;1561;42.666;23.392;2022-11-20T15:51:41;5.20;;;3.10;;
3101;SDS011;1561;42.666;23.392;2022-11-20T15:54:23;3.57;;;3.00;;
3101;SDS011;1561;42.666;23.392;2022-11-20T15:56:59;4.03;;;3.10;;
3101;SDS011;1561;42.666;23.392;2022-11-20T15:59:29;3.93;;;2.70;;
3101;SDS011;1561;42.666;23.392;2022-11-20T16:02:01;2.83;;;1.93;;
3101;SDS011;1561;42.666;23.392;2022-11-20T16:04:31;3.57;;;2.53;;
3101;SDS011;1561;42.666;23.392;2022-11-20T16:07:07;3.03;;;2.03;;
3101;SDS011;1561;42.666;23.392;2022-11-20T16:09:38;4.23;;;2.20;;
3101;SDS011;1561;42.666;23.392;2022-11-20T16:12:08;3.47;;;2.20;;
3101;SDS011;1561;42.666;23.392;2022-11-20T16:14:57;2.77;;;2.17;;
3101;SDS011;1561;42.666;23.392;2022-11-20T16:17:41;4.33;;;2.47;;
3101;SDS011;1561;42.666;23.392;2022-11-20T16:20:11;4.70;;;3.30;;
3101;SDS011;1561;42.666;23.392;2022-11-20T16:22:45;8.50;;;5.40;;
3101;SDS011;1561;42.666;23.392;2022-11-20T16:25:29;10.30;;;7.53;;
3101;SDS011;1561;42.666;23.392;2022-11-20T16:27:57;9.47;;;7.90;;
3101;SDS011;1561;42.666;23.392;2022-11-20T16:30:40;10.70;;;6.97;;
3101;SDS011;1561;42.666;23.392;2022-11-20T16:33:13;12.30;;;8.40;;
3101;SDS011;1561;42.666;23.392;2022-11-20T16:35:43;13.77;;;9.33;;
3101;SDS011;1561;42.666;23.392;2022-11-20T16:38:12;10.77;;;8.67;;
3101;SDS011;1561;42.666;23.392;2022-11-20T16:40:53;9.40;;;7.50;;
3101;SDS011;1561;42.666;23.392;2022-11-20T16:43:30;7.73;;;5.70;;
3101;SDS011;1561;42.666;23.392;2022-11-20T16:46:01;11.20;;;7.87;;